createdAt,value
2023-04-08T00:02:17.191Z,44.30
2023-04-08T00:04:45.627Z,44.60
2023-04-08T00:07:14.072Z,44.40
2023-04-08T00:09:42.523Z,44.40
2023-04-08T00:12:11.362Z,44.70
2023-04-08T00:14:41.710Z,44.50
2023-04-08T00:17:10.805Z,44.60
2023-04-08T00:19:39.261Z,44.60
2023-04-08T00:22:07.573Z,44.60
2023-04-08T00:24:36.376Z,44.60
2023-04-08T00:27:05.031Z,44.70
2023-04-08T00:29:33.369Z,44.80
2023-04-08T00:32:03.724Z,44.80
2023-04-08T00:34:32.070Z,44.90
2023-04-08T00:37:01.236Z,44.90
2023-04-08T00:39:29.657Z,45.00
2023-04-08T00:41:57.994Z,45.00
2023-04-08T00:44:26.452Z,45.10
2023-04-08T00:46:55.291Z,45.10
2023-04-08T00:49:25.119Z,45.20
2023-04-08T00:51:53.491Z,45.30
2023-04-08T00:54:21.943Z,45.20
2023-04-08T00:56:50.324Z,45.20
2023-04-08T00:59:19.846Z,45.30
2023-04-08T01:02:00.976Z,45.30
2023-04-08T01:04:42.166Z,45.60
2023-04-08T01:07:19.704Z,45.50
2023-04-08T01:09:54.588Z,45.50
2023-04-08T01:12:28.433Z,45.50
2023-04-08T01:15:02.615Z,45.50
2023-04-08T01:17:32.566Z,45.70
2023-04-08T01:20:06.411Z,45.50
2023-04-08T01:22:56.578Z,45.60
2023-04-08T01:25:32.498Z,45.70
2023-04-08T01:28:07.669Z,45.60
2023-04-08T01:30:37.263Z,45.70
2023-04-08T01:33:07.504Z,45.60
2023-04-08T01:35:37.355Z,45.60
2023-04-08T01:38:09.594Z,45.60
2023-04-08T01:40:56.679Z,45.70
2023-04-08T01:43:32.429Z,45.70
2023-04-08T01:46:03.406Z,46.40
2023-04-08T01:48:33.152Z,45.50
2023-04-08T01:51:03.216Z,45.60
2023-04-08T01:53:32.743Z,45.70
2023-04-08T01:56:08.879Z,45.60
2023-04-08T01:58:44.928Z,45.80
2023-04-08T02:01:19.522Z,45.50
2023-04-08T02:03:52.336Z,45.80
2023-04-08T02:06:21.059Z,45.80
2023-04-08T02:08:50.812Z,45.90
2023-04-08T02:11:19.740Z,45.90
2023-04-08T02:13:50.471Z,46.30
2023-04-08T02:16:25.279Z,46.00
2023-04-08T02:19:00.722Z,46.20
2023-04-08T02:21:37.110Z,46.20
2023-04-08T02:24:09.789Z,46.30
2023-04-08T02:26:40.686Z,46.20
2023-04-08T02:29:14.971Z,46.30
2023-04-08T02:31:45.904Z,46.40
2023-04-08T02:34:17.364Z,46.20
2023-04-08T02:36:48.383Z,46.10
2023-04-08T02:39:19.321Z,46.00
2023-04-08T02:41:51.615Z,46.20
2023-04-08T02:44:26.329Z,46.20
2023-04-08T02:46:56.213Z,46.50
2023-04-08T02:49:25.764Z,46.10
2023-04-08T02:51:55.079Z,46.20
2023-04-08T02:54:25.090Z,46.10
2023-04-08T02:56:54.093Z,46.10
2023-04-08T02:59:24.274Z,46.30
2023-04-08T03:01:52.963Z,46.40
2023-04-08T03:04:21.481Z,46.40
2023-04-08T03:06:49.946Z,47.00
2023-04-08T03:09:18.509Z,46.30
2023-04-08T03:11:52.723Z,46.30
2023-04-08T03:14:21.904Z,46.50
2023-04-08T03:16:51.795Z,46.80
2023-04-08T03:19:20.470Z,47.00
2023-04-08T03:21:48.847Z,46.60
2023-04-08T03:24:17.195Z,46.70
2023-04-08T03:26:46.031Z,46.80
2023-04-08T03:29:14.370Z,46.80
2023-04-08T03:31:42.926Z,46.80
2023-04-08T03:34:12.696Z,46.90
2023-04-08T03:36:41.056Z,46.90
2023-04-08T03:39:10.393Z,46.80
2023-04-08T03:41:38.896Z,47.00
2023-04-08T03:44:07.456Z,46.90
2023-04-08T03:46:35.817Z,46.90
2023-04-08T03:49:04.309Z,47.00
2023-04-08T03:51:34.228Z,47.00
2023-04-08T03:54:02.790Z,47.10
2023-04-08T03:56:31.448Z,47.10
2023-04-08T03:59:00.488Z,47.10
2023-04-08T04:01:30.137Z,47.10
2023-04-08T04:03:59.542Z,47.20
2023-04-08T04:06:28.842Z,46.90
2023-04-08T04:08:59.009Z,47.20
2023-04-08T04:11:27.939Z,46.90
2023-04-08T04:13:56.621Z,47.20
2023-04-08T04:16:25.546Z,48.30
2023-04-08T04:18:54.549Z,47.20
2023-04-08T04:21:23.027Z,47.50
2023-04-08T04:23:51.419Z,47.30
2023-04-08T04:26:21.575Z,47.20
2023-04-08T04:28:50.458Z,47.30
2023-04-08T04:31:23.136Z,47.30
2023-04-08T04:33:51.662Z,47.40
2023-04-08T04:36:20.705Z,47.40
2023-04-08T04:38:50.353Z,47.40
2023-04-08T04:41:21.831Z,47.40
2023-04-08T04:43:50.597Z,47.40
2023-04-08T04:46:19.021Z,47.40
2023-04-08T04:48:47.463Z,47.40
2023-04-08T04:51:16.086Z,47.40
2023-04-08T04:53:44.700Z,47.50
2023-04-08T04:56:13.113Z,47.50
2023-04-08T04:58:43.480Z,47.50
2023-04-08T05:01:12.080Z,47.60
2023-04-08T05:03:40.751Z,48.10
2023-04-08T05:06:09.153Z,47.60
2023-04-08T05:08:37.627Z,47.60
2023-04-08T05:11:10.011Z,47.60
2023-04-08T05:13:38.482Z,47.70
2023-04-08T05:16:09.138Z,47.70
2023-04-08T05:18:37.535Z,47.70
2023-04-08T05:21:06.272Z,47.70
2023-04-08T05:23:35.736Z,47.70
2023-04-08T05:26:04.082Z,47.80
2023-04-08T05:28:32.477Z,47.70
2023-04-08T05:31:01.089Z,47.90
2023-04-08T05:33:30.970Z,47.80
2023-04-08T05:35:59.419Z,47.90
2023-04-08T05:38:27.724Z,47.80
2023-04-08T05:40:56.205Z,47.80
2023-04-08T05:43:24.653Z,48.00
2023-04-08T05:45:53.007Z,47.90
2023-04-08T05:48:21.390Z,47.90
2023-04-08T05:50:51.145Z,47.90
2023-04-08T05:53:19.491Z,47.90
2023-04-08T05:55:47.825Z,48.10
2023-04-08T05:58:16.224Z,48.10
2023-04-08T06:00:44.555Z,48.00
2023-04-08T06:03:13.211Z,48.10
2023-04-08T06:05:42.095Z,48.10
2023-04-08T06:08:11.793Z,48.10
2023-04-08T06:10:40.126Z,48.20
2023-04-08T06:13:08.980Z,48.10
2023-04-08T06:15:37.297Z,48.20
2023-04-08T06:18:05.700Z,48.20
2023-04-08T06:20:34.189Z,48.20
2023-04-08T06:23:02.476Z,48.30
2023-04-08T06:25:32.213Z,48.30
2023-04-08T06:28:00.708Z,48.40
2023-04-08T06:30:29.146Z,48.70
2023-04-08T06:32:57.460Z,48.40
2023-04-08T06:35:25.953Z,48.50
2023-04-08T06:37:54.364Z,48.50
2023-04-08T06:40:22.853Z,48.50
2023-04-08T06:42:52.568Z,48.60
2023-04-08T06:45:30.233Z,48.60
2023-04-08T06:47:58.684Z,48.60
2023-04-08T06:50:27.231Z,48.70
2023-04-08T06:52:55.870Z,48.70
2023-04-08T06:55:24.317Z,48.70
2023-04-08T06:57:53.999Z,48.80
2023-04-08T07:00:22.452Z,48.80
2023-04-08T07:02:51.338Z,48.70
2023-04-08T07:05:19.848Z,48.80
2023-04-08T07:07:48.161Z,48.80
2023-04-08T07:10:16.835Z,48.90
2023-04-08T07:12:45.479Z,48.90
2023-04-08T07:15:15.542Z,48.90
2023-04-08T07:17:43.933Z,49.00
2023-04-08T07:20:13.879Z,48.90
2023-04-08T07:22:42.170Z,49.00
2023-04-08T07:31:40.596Z,49.30
2023-04-08T07:37:39.391Z,49.40
2023-04-08T07:40:10.891Z,49.00
2023-04-08T07:42:41.340Z,49.30
2023-04-08T07:45:13.512Z,49.30
2023-04-08T07:47:50.974Z,49.20
2023-04-08T07:53:36.977Z,49.70
2023-04-08T07:59:17.172Z,49.70
2023-04-08T08:02:17.976Z,49.30
2023-04-08T08:05:12.055Z,49.80
2023-04-08T08:07:52.579Z,49.90
2023-04-08T08:10:28.105Z,49.80
2023-04-08T08:13:08.730Z,49.50
2023-04-08T08:18:31.796Z,49.80
2023-04-08T08:21:28.680Z,49.60
2023-04-08T08:34:10.980Z,50.80
2023-04-08T08:36:39.390Z,50.40
2023-04-08T08:39:39.169Z,50.70
2023-04-08T08:42:07.820Z,50.90
2023-04-08T08:47:44.555Z,50.50
2023-04-08T09:25:11.828Z,51.00
2023-04-08T10:05:02.298Z,51.80
2023-04-08T10:07:41.299Z,51.90
2023-04-08T10:16:46.893Z,51.60
2023-04-08T10:22:36.251Z,51.20
2023-04-08T10:25:30.646Z,51.20
2023-04-08T10:28:03.682Z,51.10
2023-04-08T10:30:42.100Z,51.20
2023-04-08T10:53:07.393Z,50.80
2023-04-08T10:56:05.809Z,51.20
2023-04-08T10:59:09.232Z,50.90
2023-04-08T11:02:15.425Z,50.90
2023-04-08T11:07:53.381Z,50.90
2023-04-08T11:10:23.861Z,50.80
2023-04-08T11:12:55.186Z,50.50
2023-04-08T11:15:25.994Z,50.50
2023-04-08T11:17:56.538Z,50.60
2023-04-08T11:20:47.215Z,50.60
2023-04-08T11:23:18.973Z,50.80
2023-04-08T11:25:50.884Z,50.40
2023-04-08T11:28:29.765Z,50.50
2023-04-08T11:31:04.793Z,50.60
2023-04-08T11:33:35.149Z,50.30
2023-04-08T11:36:05.852Z,50.60
2023-04-08T11:38:37.271Z,50.30
2023-04-08T11:41:09.077Z,50.30
2023-04-08T11:43:39.550Z,50.10
2023-04-08T11:46:12.551Z,51.00
2023-04-08T11:48:41.445Z,50.40
2023-04-08T11:51:10.646Z,50.20
2023-04-08T11:53:39.160Z,50.20
2023-04-08T11:56:22.928Z,50.10
2023-04-08T11:58:51.868Z,50.40
2023-04-08T12:01:21.024Z,50.10
2023-04-08T12:03:58.200Z,50.10
2023-04-08T12:06:28.853Z,50.20
2023-04-08T12:08:58.498Z,50.10
2023-04-08T12:11:29.882Z,49.90
2023-04-08T12:13:59.517Z,50.10
2023-04-08T12:16:28.325Z,50.30
2023-04-08T12:19:25.737Z,50.00
2023-04-08T12:21:55.468Z,50.10
2023-04-08T12:24:24.604Z,49.80
2023-04-08T12:26:56.792Z,49.80
2023-04-08T12:29:26.181Z,49.70
2023-04-08T12:31:55.185Z,50.00
2023-04-08T12:34:23.796Z,50.10
2023-04-08T12:36:52.199Z,49.90
2023-04-08T12:39:21.067Z,49.90
2023-04-08T12:41:49.495Z,49.90
2023-04-08T12:44:19.314Z,50.00
2023-04-08T12:46:47.706Z,49.90
2023-04-08T12:49:16.411Z,49.90
2023-04-08T12:51:45.871Z,49.80
2023-04-08T12:54:14.354Z,49.60
2023-04-08T12:56:43.525Z,50.10
2023-04-08T12:59:12.600Z,49.60
2023-04-08T13:01:43.295Z,49.70
2023-04-08T13:04:11.924Z,49.40
2023-04-08T13:06:40.457Z,49.50
2023-04-08T13:09:08.792Z,49.40
2023-04-08T13:11:37.324Z,49.40
2023-04-08T13:14:05.610Z,49.50
2023-04-08T13:16:33.972Z,49.60
2023-04-08T13:19:03.793Z,49.70
2023-04-08T13:21:32.337Z,49.70
2023-04-08T13:24:00.794Z,49.70
2023-04-08T13:26:29.202Z,49.90
2023-04-08T13:28:58.406Z,50.00
2023-04-08T13:31:27.164Z,50.20
2023-04-08T13:33:58.147Z,50.00
2023-04-08T13:36:28.905Z,50.30
2023-04-08T13:38:57.671Z,50.10
2023-04-08T13:41:28.182Z,50.10
2023-04-08T13:43:56.872Z,49.90
2023-04-08T13:46:25.694Z,49.90
2023-04-08T13:48:54.836Z,49.90
2023-04-08T13:51:23.369Z,49.40
2023-04-08T13:53:53.241Z,49.80
2023-04-08T13:56:22.603Z,49.30
2023-04-08T13:58:57.110Z,49.00
2023-04-08T14:01:26.538Z,49.70
2023-04-08T14:03:55.078Z,50.10
2023-04-08T14:06:23.605Z,49.30
2023-04-08T14:08:53.843Z,49.50
2023-04-08T14:11:22.538Z,49.50
2023-04-08T14:13:51.062Z,49.90
2023-04-08T14:16:19.809Z,49.70
2023-04-08T14:18:48.546Z,49.60
2023-04-08T14:21:18.249Z,49.90
2023-04-08T14:23:46.821Z,49.60
2023-04-08T14:26:16.665Z,49.60
2023-04-08T14:28:45.021Z,49.50
2023-04-08T14:31:13.775Z,49.90
2023-04-08T14:33:42.395Z,49.50
2023-04-08T14:36:11.522Z,49.50
2023-04-08T14:38:40.292Z,49.60
2023-04-08T14:41:08.906Z,49.50
2023-04-08T14:43:38.781Z,49.50
2023-04-08T14:46:07.264Z,49.40
2023-04-08T14:48:35.996Z,49.60
2023-04-08T14:51:04.760Z,49.20
2023-04-08T14:53:33.520Z,49.10
2023-04-08T14:56:02.007Z,49.10
2023-04-08T14:58:30.449Z,49.10
2023-04-08T15:01:00.201Z,49.20
2023-04-08T15:03:28.903Z,49.20
2023-04-08T15:05:57.604Z,49.20
2023-04-08T15:08:26.203Z,49.20
2023-04-08T15:10:54.476Z,49.20
2023-04-08T15:13:23.044Z,49.20
2023-04-08T15:15:51.800Z,49.20
2023-04-08T15:18:21.549Z,49.20
2023-04-08T15:20:49.848Z,49.30
2023-04-08T15:23:18.190Z,49.20
2023-04-08T15:25:46.466Z,49.20
2023-04-08T15:28:14.794Z,49.20
2023-04-08T15:30:44.590Z,49.20
2023-04-08T15:33:13.065Z,49.40
2023-04-08T15:35:46.425Z,49.30
2023-04-08T15:38:14.918Z,49.60
2023-04-08T15:40:45.043Z,49.80
2023-04-08T15:43:15.239Z,49.50
2023-04-08T15:45:46.747Z,49.50
2023-04-08T15:48:15.484Z,49.50
2023-04-08T15:50:45.338Z,49.50
2023-04-08T15:53:13.795Z,49.60
2023-04-08T15:56:35.580Z,49.60
2023-04-08T15:59:03.979Z,49.70
2023-04-08T16:01:33.407Z,50.00
2023-04-08T16:04:03.748Z,49.60
2023-04-08T16:06:39.635Z,49.30
2023-04-08T16:09:10.715Z,49.70
2023-04-08T16:11:39.642Z,49.60
2023-04-08T16:14:08.163Z,50.00
2023-04-08T16:16:38.710Z,50.00
2023-04-08T16:19:07.533Z,49.40
2023-04-08T16:21:36.163Z,49.90
2023-04-08T16:24:07.039Z,49.50
2023-04-08T16:26:35.821Z,49.60
2023-04-08T16:29:04.740Z,49.60
2023-04-08T16:31:33.487Z,49.60
2023-04-08T16:34:02.239Z,49.60
2023-04-08T16:36:30.701Z,49.60
2023-04-08T16:38:59.050Z,49.70
2023-04-08T16:41:28.824Z,49.60
2023-04-08T16:43:57.803Z,50.00
2023-04-08T16:46:26.766Z,49.60
2023-04-08T16:48:55.406Z,49.70
2023-04-08T16:51:23.709Z,49.70
2023-04-08T16:53:52.511Z,49.80
2023-04-08T16:56:21.784Z,49.80
2023-04-08T16:58:52.457Z,49.80
2023-04-08T17:01:20.848Z,50.00
2023-04-08T17:03:50.308Z,49.80
2023-04-08T17:06:19.019Z,49.90
2023-04-08T17:08:47.571Z,49.90
2023-04-08T17:11:16.472Z,50.00
2023-04-08T17:13:45.676Z,50.00
2023-04-08T17:16:17.433Z,50.00
2023-04-08T17:18:46.932Z,50.00
2023-04-08T17:21:15.673Z,50.00
2023-04-08T17:23:44.205Z,50.00
2023-04-08T17:26:12.904Z,50.00
2023-04-08T17:28:41.794Z,50.00
2023-04-08T17:31:10.740Z,50.10
2023-04-08T17:33:40.441Z,50.10
2023-04-08T17:36:09.265Z,50.10
2023-04-08T17:38:39.855Z,50.20
2023-04-08T17:41:09.999Z,50.40
2023-04-08T17:43:38.523Z,50.10
2023-04-08T17:46:06.899Z,50.30
2023-04-08T17:48:35.375Z,50.10
2023-04-08T17:51:07.565Z,50.20
2023-04-08T17:53:36.690Z,50.20
2023-04-08T17:56:06.263Z,50.20
2023-04-08T17:58:34.596Z,50.20
2023-04-08T18:01:02.955Z,50.10
2023-04-08T18:03:31.789Z,50.10
2023-04-08T18:06:00.185Z,50.20
2023-04-08T18:08:30.046Z,50.20
2023-04-08T18:10:58.448Z,50.20
2023-04-08T18:13:26.803Z,50.20
2023-04-08T18:15:55.249Z,50.10
2023-04-08T18:18:24.980Z,50.10
2023-04-08T18:20:53.376Z,50.10
2023-04-08T18:23:21.731Z,50.20
2023-04-08T18:25:51.758Z,50.10
2023-04-08T18:29:01.037Z,50.00
2023-04-08T19:05:05.304Z,50.00
2023-04-08T19:21:11.314Z,50.40
2023-04-08T19:23:41.440Z,50.20
2023-04-08T19:29:30.146Z,50.60
2023-04-08T19:35:16.731Z,50.80
2023-04-08T19:37:47.746Z,50.90
2023-04-08T19:40:20.774Z,51.00
2023-04-08T19:49:30.724Z,51.00
2023-04-08T19:52:01.302Z,50.40
2023-04-08T19:54:32.753Z,50.70
2023-04-08T20:04:11.244Z,51.00
2023-04-08T20:06:48.028Z,51.00
2023-04-08T21:05:01.954Z,51.10
2023-04-08T21:51:38.795Z,51.40
2023-04-08T21:54:07.889Z,51.10
2023-04-08T22:03:41.446Z,51.40
2023-04-08T22:06:19.160Z,51.50
2023-04-08T22:08:57.117Z,51.60
2023-04-08T22:14:47.528Z,51.50
2023-04-08T22:17:17.340Z,51.20
2023-04-08T22:19:47.213Z,51.10
2023-04-08T22:22:16.778Z,51.90
2023-04-08T22:28:03.760Z,51.40
2023-04-08T22:37:36.709Z,51.50
2023-04-08T22:57:39.848Z,51.60
2023-04-08T23:00:29.329Z,51.70
2023-04-08T23:06:21.080Z,51.70
2023-04-08T23:22:20.520Z,51.60
2023-04-08T23:24:50.850Z,52.20
2023-04-08T23:27:20.646Z,51.80
2023-04-08T23:29:50.406Z,51.30
2023-04-08T23:32:20.223Z,51.50
2023-04-08T23:34:49.722Z,51.50
2023-04-08T23:37:21.072Z,51.80
2023-04-08T23:39:50.322Z,51.70
2023-04-08T23:42:20.163Z,52.10
2023-04-08T23:44:49.965Z,51.40
2023-04-08T23:47:19.761Z,51.50
2023-04-08T23:49:49.682Z,51.90
2023-04-08T23:52:20.911Z,51.30
2023-04-08T23:54:55.302Z,51.30
2023-04-08T23:57:24.834Z,51.30
2023-04-08T23:59:54.448Z,51.20
